»·PEaware :: N942BW KTUS-KPHX

N942BW :: KTUS-KPHX

FLIGHT INFORMATION

Flight Status: Arrived
Operator: Privately registered:
United States
More flights under this callsign
Pilot: Ryan C. (15122)
Aircraft: BEECH AIRCRAFT SUPER KING AIR 350
(B350)
More flights by this aircraft type
Origin: KTUS Tucson Intl
United States
Destination: KPHX Phoenix Sky Harbor Intl
United States
More flights between these airports :: More routes between these airports
Route: TUS8 TUS SUNSS8
File this flight plan on PilotEdge
Remarks:
Altitude:
(Current/Filed)
12,000ft
Speed:
(Current/Filed)
280kts
Departed: 10-Apr-22 05:58 PM
Arrived: 10-Apr-22 06:33 PM
Distance/Time
Traveled:
96nm/0:35
Distance/Time
To Go:
Arrived

Flight Plot

Page will automatically refresh every two minutes.

Flight plan parsing failed; only flown route is shown


Map Options




Map Legend


Flown Route
Filed Route
Departure Airport
Arrival Airport
Navaid (VOR, NDB)
Fix

Horizontal Profiles

Position Reports

Time Latitude Longitude Heading Altitude Ground
Speed
10-Apr-22 17:34 32.124191 -110.944338 223 2584ft 0kts
10-Apr-22 17:35 32.124191 -110.944338 223 2584ft 0kts
10-Apr-22 17:36 32.124191 -110.944338 223 2584ft 0kts
10-Apr-22 17:37 32.124191 -110.944338 223 2584ft 0kts
10-Apr-22 17:38 32.124191 -110.944338 223 2584ft 0kts
10-Apr-22 17:39 32.124191 -110.944338 223 2584ft 0kts
10-Apr-22 17:40 32.124191 -110.944338 223 2584ft 0kts
10-Apr-22 17:41 32.124191 -110.944338 223 2584ft 0kts
10-Apr-22 17:42 32.124191 -110.944338 223 2584ft 0kts
10-Apr-22 17:43 32.124191 -110.944338 223 2584ft 0kts
10-Apr-22 17:44 32.124191 -110.944338 223 2584ft 0kts
10-Apr-22 17:45 32.124191 -110.944338 223 2584ft 0kts
10-Apr-22 17:46 32.124191 -110.944338 223 2584ft 0kts
10-Apr-22 17:47 32.124191 -110.944338 223 2584ft 0kts
10-Apr-22 17:48 32.123927 -110.944489 178 2585ft 2kts
10-Apr-22 17:49 32.122399 -110.944227 140 2590ft 10kts
10-Apr-22 17:50 32.119528 -110.940879 135 2599ft 15kts
10-Apr-22 17:51 32.116479 -110.937306 135 2611ft 19kts
10-Apr-22 17:52 32.113133 -110.933385 134 2622ft 12kts
10-Apr-22 17:53 32.109966 -110.929662 134 2631ft 14kts
10-Apr-22 17:54 32.106490 -110.925598 135 2640ft 13kts
10-Apr-22 17:55 32.103486 -110.922073 134 2648ft 12kts
10-Apr-22 17:56 32.103069 -110.924080 314 2644ft 31kts
10-Apr-22 17:57 32.125525 -110.951406 307 3278ft 158kts
10-Apr-22 17:58 32.164900 -110.946834 67 4828ft 183kts
10-Apr-22 17:59 32.143271 -110.906655 186 5984ft 153kts
10-Apr-22 18:00 32.111835 -110.925093 278 7085ft 150kts
10-Apr-22 18:01 32.150959 -110.948178 341 8196ft 177kts
10-Apr-22 18:02 32.199730 -110.958770 339 9217ft 180kts
10-Apr-22 18:03 32.248490 -110.970051 340 10295ft 178kts
10-Apr-22 18:04 32.297256 -110.980836 339 11253ft 180kts
10-Apr-22 18:05 32.346403 -110.991810 339 12020ft 188kts
10-Apr-22 18:06 32.403286 -111.004600 341 12007ft 221kts
10-Apr-22 18:07 32.466700 -111.018645 341 11994ft 238kts
10-Apr-22 18:08 32.532806 -111.033403 341 11991ft 245kts
10-Apr-22 18:09 32.599178 -111.051668 339 11992ft 247kts
10-Apr-22 18:10 32.666523 -111.070141 340 11993ft 248kts
10-Apr-22 18:11 32.734271 -111.088679 340 11995ft 249kts
10-Apr-22 18:12 32.789812 -111.127927 306 12002ft 232kts
10-Apr-22 18:13 32.833448 -111.184836 306 11999ft 232kts
10-Apr-22 18:14 32.877126 -111.241545 306 11998ft 233kts
10-Apr-22 18:15 32.920833 -111.298332 306 11976ft 234kts
10-Apr-22 18:16 32.966921 -111.358400 307 10810ft 262kts
10-Apr-22 18:17 33.017199 -111.423745 307 9057ft 265kts
10-Apr-22 18:18 33.062227 -111.488030 296 9073ft 242kts
10-Apr-22 18:19 33.095507 -111.556593 297 9054ft 237kts
10-Apr-22 18:20 33.156194 -111.585435 340 8598ft 238kts
10-Apr-22 18:21 33.220188 -111.604660 340 7864ft 235kts
10-Apr-22 18:22 33.281515 -111.622689 340 7013ft 219kts
10-Apr-22 18:23 33.339593 -111.639342 340 6060ft 215kts
10-Apr-22 18:24 33.396467 -111.656193 326 5042ft 201kts
10-Apr-22 18:25 33.420887 -111.704112 289 4931ft 168kts
10-Apr-22 18:26 33.428285 -111.761171 267 3975ft 180kts
10-Apr-22 18:27 33.429105 -111.817464 268 3964ft 169kts
10-Apr-22 18:28 33.428149 -111.876636 265 3117ft 170kts
10-Apr-22 18:29 33.428710 -111.929120 267 2355ft 131kts
10-Apr-22 18:30 33.428736 -111.965849 269 1728ft 105kts
10-Apr-22 18:31 33.428858 -112.001967 269 1172ft 110kts
10-Apr-22 18:32 33.428225 -112.016564 181 1136ft 9kts
10-Apr-22 18:33 33.427744 -112.017707 269 1136ft 13kts
10-Apr-22 18:34 33.427753 -112.022995 269 1136ft 10kts
10-Apr-22 18:35 33.426781 -112.024100 124 1136ft 0kts
10-Apr-22 18:36 33.426781 -112.024100 124 1136ft 0kts
10-Apr-22 18:37 33.426781 -112.024100 124 1136ft 0kts
10-Apr-22 18:38 33.426781 -112.024100 124 1136ft 0kts
10-Apr-22 18:39 33.426781 -112.024100 124 1136ft 0kts
10-Apr-22 18:40 33.426781 -112.024100 124 1136ft 0kts
10-Apr-22 18:41 33.426781 -112.024100 124 1136ft 0kts
10-Apr-22 18:42 33.426781 -112.024100 124 1136ft 0kts
10-Apr-22 18:43 33.426781 -112.024100 124 1136ft 0kts
10-Apr-22 18:44 33.426781 -112.024100 124 1136ft 0kts
10-Apr-22 18:45 33.426781 -112.024100 124 1136ft 0kts
10-Apr-22 18:46 33.426781 -112.024100 124 1136ft 0kts
10-Apr-22 18:47 33.426781 -112.024100 124 1136ft 0kts

Navigation Log

Ident Type
Flight plan parsing failed, navigation log unavailable